createdAt,value
2023-01-29T00:07:27.897Z,-2.1
2023-01-29T00:17:28.253Z,-2.2
2023-01-29T00:27:29.124Z,-2.3
2023-01-29T00:37:29.837Z,-2.4
2023-01-29T00:47:30.127Z,-2.5
2023-01-29T00:57:30.342Z,-2.4
2023-01-29T01:07:30.918Z,-2.4
2023-01-29T01:17:31.801Z,-2.3
2023-01-29T01:27:32.632Z,-2.4
2023-01-29T01:37:33.704Z,-2.4
2023-01-29T01:47:34.297Z,-2.3
2023-01-29T01:57:34.795Z,-2.5
2023-01-29T02:07:35.598Z,-2.4
2023-01-29T02:17:36.641Z,-2.3
2023-01-29T02:37:38.069Z,-2.2
2023-01-29T02:47:38.714Z,-2.2
2023-01-29T02:57:39.724Z,-2.3
2023-01-29T03:07:40.214Z,-2.3
2023-01-29T03:17:41.220Z,-2.4
2023-01-29T03:27:42.229Z,-2.3
2023-01-29T03:37:42.984Z,-2.4
2023-01-29T03:47:43.927Z,-2.6
2023-01-29T03:57:44.827Z,-2.7
2023-01-29T04:17:45.815Z,-2.6
2023-01-29T04:27:46.692Z,-2.5
2023-01-29T04:37:46.927Z,-2.4
2023-01-29T04:57:47.889Z,-2.2
2023-01-29T05:17:48.970Z,-2
2023-01-29T05:37:50.336Z,-1.7
2023-01-29T05:47:50.700Z,-1.7
2023-01-29T06:17:51.999Z,-1.6
2023-01-29T06:27:52.772Z,-1.6
2023-01-29T06:37:53.387Z,-1.6
2023-01-29T06:47:54.447Z,-1.5
2023-01-29T06:57:55.144Z,-1.4
2023-01-29T07:07:55.273Z,-1.4
2023-01-29T07:17:56.094Z,-1.3
2023-01-29T07:37:56.333Z,-1.2
2023-01-29T07:47:56.750Z,-1.2
2023-01-29T07:57:57.442Z,-1.2
2023-01-29T08:08:06.375Z,-1.1
2023-01-29T08:17:59.142Z,-1
2023-01-29T09:08:01.669Z,-0.7
2023-01-29T09:18:02.343Z,-0.6
2023-01-29T09:58:03.694Z,-0.2
2023-01-29T10:18:04.353Z,0.1
2023-01-29T10:38:06.035Z,0.3
2023-01-29T10:48:06.822Z,0.3
2023-01-29T10:58:07.028Z,0.3
2023-01-29T11:18:08.824Z,0.5
2023-01-29T11:28:08.901Z,0.5
2023-01-29T11:38:09.009Z,0.6
2023-01-29T11:48:09.151Z,0.7
2023-01-29T12:08:09.756Z,0.8
2023-01-29T12:28:10.540Z,1
2023-01-29T12:38:11.153Z,1
2023-01-29T12:48:12.126Z,1.1
2023-01-29T12:58:13.062Z,1
2023-01-29T13:18:13.498Z,1
2023-01-29T13:28:14.300Z,1
2023-01-29T13:38:15.166Z,1.1
2023-01-29T13:48:21.960Z,1.1
2023-01-29T13:58:22.190Z,1.2
2023-01-29T14:08:22.752Z,1.2
2023-01-29T14:18:22.914Z,1.2
2023-01-29T14:28:23.866Z,1.2
2023-01-29T14:38:24.623Z,1.2
2023-01-29T14:48:24.953Z,1.3
2023-01-29T14:58:25.680Z,1.3
2023-01-29T15:08:26.728Z,1.3
2023-01-29T15:18:27.302Z,1.4
2023-01-29T15:28:27.727Z,1.4
2023-01-29T15:38:27.944Z,1.4
2023-01-29T15:48:28.071Z,1.4
2023-01-29T15:58:28.822Z,1.4
2023-01-29T16:08:29.856Z,1.4
2023-01-29T16:18:30.719Z,1.4
2023-01-29T16:28:30.989Z,1.4
2023-01-29T16:38:31.729Z,1.4
2023-01-29T16:48:31.865Z,1.4
2023-01-29T16:58:32.850Z,1.4
2023-01-29T17:08:33.260Z,1.4
2023-01-29T17:18:33.932Z,1.5
2023-01-29T17:28:34.431Z,1.6
2023-01-29T17:38:35.291Z,1.6
2023-01-29T17:48:35.723Z,1.7
2023-01-29T17:58:36.660Z,1.7
2023-01-29T18:08:36.932Z,1.7
2023-01-29T18:18:37.593Z,1.8
2023-01-29T18:28:38.031Z,1.6
2023-01-29T18:38:38.984Z,1.6
2023-01-29T18:48:41.650Z,1.6
2023-01-29T18:58:39.860Z,1.6
2023-01-29T19:08:40.425Z,1.4
2023-01-29T19:18:40.980Z,1.3
2023-01-29T19:28:41.230Z,1.3
2023-01-29T19:38:41.308Z,1.4
2023-01-29T19:48:42.314Z,1.4
2023-01-29T20:08:43.586Z,1.7
2023-01-29T20:28:44.496Z,1.7
2023-01-29T20:38:44.911Z,1.7
2023-01-29T20:58:46.836Z,1.9
2023-01-29T21:08:46.791Z,1.9
2023-01-29T21:28:48.408Z,1.9
2023-01-29T21:58:49.342Z,2
2023-01-29T22:28:51.028Z,2.2
2023-01-29T23:18:54.328Z,2.5
2023-01-29T23:28:55.384Z,2.6
2023-01-29T23:38:55.903Z,2.7
